sensor_id;sensor_type;location;lat;lon;timestamp;P1;durP1;ratioP1;P2;durP2;ratioP2
908;SDS011;441;51.192;6.788;2024-03-02T00:00:18;18.70;;;18.10;;
908;SDS011;441;51.192;6.788;2024-03-02T00:02:47;19.40;;;18.70;;
908;SDS011;441;51.192;6.788;2024-03-02T00:05:18;19.20;;;18.50;;
908;SDS011;441;51.192;6.788;2024-03-02T00:07:47;19.37;;;18.67;;
908;SDS011;441;51.192;6.788;2024-03-02T00:10:22;20.00;;;18.83;;
908;SDS011;441;51.192;6.788;2024-03-02T00:12:54;19.67;;;18.97;;
908;SDS011;441;51.192;6.788;2024-03-02T00:15:29;19.20;;;18.50;;
908;SDS011;441;51.192;6.788;2024-03-02T00:18:08;19.07;;;18.27;;
908;SDS011;441;51.192;6.788;2024-03-02T00:20:38;18.60;;;18.00;;
908;SDS011;441;51.192;6.788;2024-03-02T00:23:06;19.30;;;18.70;;
908;SDS011;441;51.192;6.788;2024-03-02T00:25:36;19.47;;;18.77;;
908;SDS011;441;51.192;6.788;2024-03-02T00:28:06;19.20;;;18.50;;
908;SDS011;441;51.192;6.788;2024-03-02T00:30:54;19.10;;;18.40;;
908;SDS011;441;51.192;6.788;2024-03-02T00:33:23;18.80;;;18.20;;
908;SDS011;441;51.192;6.788;2024-03-02T00:35:54;19.00;;;18.30;;
908;SDS011;441;51.192;6.788;2024-03-02T00:38:21;18.80;;;18.10;;
908;SDS011;441;51.192;6.788;2024-03-02T00:40:49;18.70;;;18.10;;
908;SDS011;441;51.192;6.788;2024-03-02T00:43:27;18.83;;;18.23;;
908;SDS011;441;51.192;6.788;2024-03-02T00:46:15;19.40;;;18.70;;
908;SDS011;441;51.192;6.788;2024-03-02T00:48:53;19.53;;;18.83;;
908;SDS011;441;51.192;6.788;2024-03-02T00:51:22;19.13;;;18.43;;
908;SDS011;441;51.192;6.788;2024-03-02T00:53:52;19.10;;;18.40;;
908;SDS011;441;51.192;6.788;2024-03-02T00:56:21;19.00;;;18.40;;
908;SDS011;441;51.192;6.788;2024-03-02T00:58:49;19.33;;;18.57;;
908;SDS011;441;51.192;6.788;2024-03-02T01:01:16;18.77;;;18.07;;
908;SDS011;441;51.192;6.788;2024-03-02T01:03:43;19.83;;;19.13;;
908;SDS011;441;51.192;6.788;2024-03-02T01:06:09;18.63;;;18.03;;
908;SDS011;441;51.192;6.788;2024-03-02T01:08:38;18.90;;;18.27;;
908;SDS011;441;51.192;6.788;2024-03-02T01:11:05;18.70;;;18.00;;
908;SDS011;441;51.192;6.788;2024-03-02T01:13:32;19.07;;;18.40;;
908;SDS011;441;51.192;6.788;2024-03-02T01:15:59;18.60;;;17.90;;
908;SDS011;441;51.192;6.788;2024-03-02T01:18:26;18.63;;;18.03;;
908;SDS011;441;51.192;6.788;2024-03-02T01:20:54;18.80;;;18.10;;
908;SDS011;441;51.192;6.788;2024-03-02T01:23:21;18.40;;;17.80;;
908;SDS011;441;51.192;6.788;2024-03-02T01:25:50;18.97;;;18.27;;
908;SDS011;441;51.192;6.788;2024-03-02T01:28:17;18.77;;;18.07;;
908;SDS011;441;51.192;6.788;2024-03-02T01:30:45;19.33;;;18.63;;
908;SDS011;441;51.192;6.788;2024-03-02T01:33:12;18.70;;;18.00;;
908;SDS011;441;51.192;6.788;2024-03-02T01:35:39;18.53;;;17.83;;
908;SDS011;441;51.192;6.788;2024-03-02T01:38:06;18.63;;;17.93;;
908;SDS011;441;51.192;6.788;2024-03-02T01:40:33;18.57;;;17.87;;
908;SDS011;441;51.192;6.788;2024-03-02T01:43:02;18.73;;;18.03;;
908;SDS011;441;51.192;6.788;2024-03-02T01:45:30;18.70;;;18.10;;
908;SDS011;441;51.192;6.788;2024-03-02T01:47:57;18.43;;;17.77;;
908;SDS011;441;51.192;6.788;2024-03-02T01:50:26;18.53;;;17.93;;
908;SDS011;441;51.192;6.788;2024-03-02T01:52:53;18.50;;;17.90;;
908;SDS011;441;51.192;6.788;2024-03-02T01:55:21;19.13;;;18.53;;
908;SDS011;441;51.192;6.788;2024-03-02T01:57:49;18.10;;;17.50;;
908;SDS011;441;51.192;6.788;2024-03-02T02:00:19;18.60;;;17.90;;
908;SDS011;441;51.192;6.788;2024-03-02T02:02:46;20.60;;;19.90;;
908;SDS011;441;51.192;6.788;2024-03-02T02:05:13;24.10;;;23.20;;
908;SDS011;441;51.192;6.788;2024-03-02T02:07:41;22.83;;;22.03;;
908;SDS011;441;51.192;6.788;2024-03-02T02:10:08;22.77;;;22.00;;
908;SDS011;441;51.192;6.788;2024-03-02T02:12:36;22.30;;;21.60;;
908;SDS011;441;51.192;6.788;2024-03-02T02:15:04;22.80;;;22.00;;
908;SDS011;441;51.192;6.788;2024-03-02T02:17:48;22.57;;;21.77;;
908;SDS011;441;51.192;6.788;2024-03-02T02:20:14;23.20;;;22.40;;
908;SDS011;441;51.192;6.788;2024-03-02T02:22:53;22.50;;;21.80;;
908;SDS011;441;51.192;6.788;2024-03-02T02:25:21;22.10;;;21.30;;
908;SDS011;441;51.192;6.788;2024-03-02T02:27:47;22.70;;;21.90;;
908;SDS011;441;51.192;6.788;2024-03-02T02:30:17;22.90;;;22.10;;
908;SDS011;441;51.192;6.788;2024-03-02T02:32:46;22.23;;;21.53;;
908;SDS011;441;51.192;6.788;2024-03-02T02:35:13;22.70;;;21.93;;
908;SDS011;441;51.192;6.788;2024-03-02T02:37:40;18.90;;;18.20;;
908;SDS011;441;51.192;6.788;2024-03-02T02:40:09;18.67;;;18.07;;
908;SDS011;441;51.192;6.788;2024-03-02T02:42:37;18.90;;;18.30;;
908;SDS011;441;51.192;6.788;2024-03-02T02:45:04;19.50;;;18.70;;
908;SDS011;441;51.192;6.788;2024-03-02T02:47:31;18.50;;;17.90;;
908;SDS011;441;51.192;6.788;2024-03-02T02:50:00;18.97;;;18.27;;
908;SDS011;441;51.192;6.788;2024-03-02T02:52:30;18.97;;;18.27;;
908;SDS011;441;51.192;6.788;2024-03-02T02:54:58;18.37;;;17.77;;
908;SDS011;441;51.192;6.788;2024-03-02T02:57:26;18.50;;;17.90;;
908;SDS011;441;51.192;6.788;2024-03-02T02:59:55;18.77;;;18.10;;
908;SDS011;441;51.192;6.788;2024-03-02T03:02:22;18.80;;;18.17;;
908;SDS011;441;51.192;6.788;2024-03-02T03:04:49;18.97;;;18.30;;
908;SDS011;441;51.192;6.788;2024-03-02T03:07:16;19.03;;;18.43;;
908;SDS011;441;51.192;6.788;2024-03-02T03:09:42;18.93;;;18.33;;
908;SDS011;441;51.192;6.788;2024-03-02T03:12:09;18.60;;;18.00;;
908;SDS011;441;51.192;6.788;2024-03-02T03:14:37;19.07;;;18.37;;
908;SDS011;441;51.192;6.788;2024-03-02T03:17:06;18.73;;;18.13;;
908;SDS011;441;51.192;6.788;2024-03-02T03:19:33;18.77;;;18.17;;
908;SDS011;441;51.192;6.788;2024-03-02T03:22:00;18.97;;;18.37;;
908;SDS011;441;51.192;6.788;2024-03-02T03:24:28;19.10;;;18.50;;
908;SDS011;441;51.192;6.788;2024-03-02T03:26:55;18.93;;;18.33;;
908;SDS011;441;51.192;6.788;2024-03-02T03:29:22;19.27;;;18.60;;
908;SDS011;441;51.192;6.788;2024-03-02T03:31:51;18.80;;;18.20;;
908;SDS011;441;51.192;6.788;2024-03-02T03:34:17;19.47;;;18.73;;
908;SDS011;441;51.192;6.788;2024-03-02T03:36:44;20.27;;;19.50;;
908;SDS011;441;51.192;6.788;2024-03-02T03:39:11;19.00;;;18.30;;
908;SDS011;441;51.192;6.788;2024-03-02T03:41:40;19.73;;;19.03;;
908;SDS011;441;51.192;6.788;2024-03-02T03:44:07;19.40;;;18.70;;
908;SDS011;441;51.192;6.788;2024-03-02T03:46:34;19.03;;;18.43;;
908;SDS011;441;51.192;6.788;2024-03-02T03:49:03;19.10;;;18.50;;
908;SDS011;441;51.192;6.788;2024-03-02T03:51:30;19.07;;;18.47;;
908;SDS011;441;51.192;6.788;2024-03-02T03:53:57;19.10;;;18.50;;
908;SDS011;441;51.192;6.788;2024-03-02T03:56:24;19.33;;;18.73;;
908;SDS011;441;51.192;6.788;2024-03-02T03:58:51;19.10;;;18.50;;
908;SDS011;441;51.192;6.788;2024-03-02T04:01:17;19.50;;;18.80;;
908;SDS011;441;51.192;6.788;2024-03-02T04:03:47;19.83;;;19.13;;
908;SDS011;441;51.192;6.788;2024-03-02T04:06:15;19.60;;;18.87;;
908;SDS011;441;51.192;6.788;2024-03-02T04:08:42;19.27;;;18.67;;
908;SDS011;441;51.192;6.788;2024-03-02T04:11:09;19.40;;;18.70;;
908;SDS011;441;51.192;6.788;2024-03-02T04:13:36;19.57;;;18.87;;
908;SDS011;441;51.192;6.788;2024-03-02T04:16:04;19.10;;;18.47;;
908;SDS011;441;51.192;6.788;2024-03-02T04:18:31;19.40;;;18.70;;
908;SDS011;441;51.192;6.788;2024-03-02T04:20:57;19.70;;;19.00;;
908;SDS011;441;51.192;6.788;2024-03-02T04:23:26;19.47;;;18.77;;
908;SDS011;441;51.192;6.788;2024-03-02T04:25:52;19.87;;;19.07;;
908;SDS011;441;51.192;6.788;2024-03-02T04:28:20;19.10;;;18.40;;
908;SDS011;441;51.192;6.788;2024-03-02T04:30:48;20.10;;;19.20;;
908;SDS011;441;51.192;6.788;2024-03-02T04:33:14;19.43;;;18.73;;
908;SDS011;441;51.192;6.788;2024-03-02T04:35:42;19.70;;;19.00;;
908;SDS011;441;51.192;6.788;2024-03-02T04:38:09;19.57;;;18.87;;
908;SDS011;441;51.192;6.788;2024-03-02T04:40:37;19.80;;;19.10;;
908;SDS011;441;51.192;6.788;2024-03-02T04:43:04;20.30;;;19.60;;
908;SDS011;441;51.192;6.788;2024-03-02T04:45:31;19.57;;;18.87;;
908;SDS011;441;51.192;6.788;2024-03-02T04:47:58;19.50;;;18.80;;
908;SDS011;441;51.192;6.788;2024-03-02T04:50:24;19.40;;;18.70;;
908;SDS011;441;51.192;6.788;2024-03-02T04:52:51;19.90;;;19.20;;
908;SDS011;441;51.192;6.788;2024-03-02T04:55:18;19.70;;;19.00;;
908;SDS011;441;51.192;6.788;2024-03-02T04:58:12;19.50;;;18.80;;
908;SDS011;441;51.192;6.788;2024-03-02T05:00:39;19.90;;;19.20;;
908;SDS011;441;51.192;6.788;2024-03-02T05:03:07;20.20;;;19.50;;
908;SDS011;441;51.192;6.788;2024-03-02T05:05:34;19.87;;;19.17;;
908;SDS011;441;51.192;6.788;2024-03-02T05:08:02;20.10;;;19.40;;
908;SDS011;441;51.192;6.788;2024-03-02T05:10:29;20.83;;;20.10;;
908;SDS011;441;51.192;6.788;2024-03-02T05:12:56;20.20;;;19.50;;
908;SDS011;441;51.192;6.788;2024-03-02T05:15:25;20.73;;;20.03;;
908;SDS011;441;51.192;6.788;2024-03-02T05:17:53;20.43;;;19.73;;
908;SDS011;441;51.192;6.788;2024-03-02T05:20:22;20.70;;;19.90;;
908;SDS011;441;51.192;6.788;2024-03-02T05:22:48;20.20;;;19.40;;
908;SDS011;441;51.192;6.788;2024-03-02T05:25:15;20.47;;;19.77;;
908;SDS011;441;51.192;6.788;2024-03-02T05:27:42;20.43;;;19.73;;
908;SDS011;441;51.192;6.788;2024-03-02T05:30:09;20.23;;;19.53;;
908;SDS011;441;51.192;6.788;2024-03-02T05:32:38;20.20;;;19.50;;
908;SDS011;441;51.192;6.788;2024-03-02T05:35:05;20.00;;;19.30;;
908;SDS011;441;51.192;6.788;2024-03-02T05:37:33;20.60;;;19.80;;
908;SDS011;441;51.192;6.788;2024-03-02T05:40:00;20.60;;;19.87;;
908;SDS011;441;51.192;6.788;2024-03-02T05:42:28;20.30;;;19.60;;
908;SDS011;441;51.192;6.788;2024-03-02T05:44:55;20.83;;;20.03;;
908;SDS011;441;51.192;6.788;2024-03-02T05:47:22;20.50;;;19.80;;
908;SDS011;441;51.192;6.788;2024-03-02T05:49:50;21.03;;;20.13;;
908;SDS011;441;51.192;6.788;2024-03-02T05:52:17;20.23;;;19.53;;
908;SDS011;441;51.192;6.788;2024-03-02T05:54:45;20.07;;;19.37;;
908;SDS011;441;51.192;6.788;2024-03-02T05:57:13;20.53;;;19.83;;
908;SDS011;441;51.192;6.788;2024-03-02T05:59:56;20.03;;;19.33;;
908;SDS011;441;51.192;6.788;2024-03-02T06:02:23;23.40;;;22.60;;
908;SDS011;441;51.192;6.788;2024-03-02T06:04:52;23.03;;;22.20;;
908;SDS011;441;51.192;6.788;2024-03-02T06:07:21;19.60;;;18.90;;
908;SDS011;441;51.192;6.788;2024-03-02T06:09:48;20.00;;;19.30;;
908;SDS011;441;51.192;6.788;2024-03-02T06:12:17;20.63;;;19.83;;
908;SDS011;441;51.192;6.788;2024-03-02T06:14:45;18.90;;;18.20;;
908;SDS011;441;51.192;6.788;2024-03-02T06:17:12;19.60;;;18.90;;
908;SDS011;441;51.192;6.788;2024-03-02T06:19:39;20.70;;;19.70;;
908;SDS011;441;51.192;6.788;2024-03-02T06:22:07;20.03;;;19.33;;
908;SDS011;441;51.192;6.788;2024-03-02T06:24:35;20.30;;;19.60;;
908;SDS011;441;51.192;6.788;2024-03-02T06:27:02;20.30;;;19.60;;
908;SDS011;441;51.192;6.788;2024-03-02T06:29:32;20.27;;;19.37;;
908;SDS011;441;51.192;6.788;2024-03-02T06:31:58;19.47;;;18.77;;
908;SDS011;441;51.192;6.788;2024-03-02T06:34:25;19.80;;;19.10;;
908;SDS011;441;51.192;6.788;2024-03-02T06:36:52;20.37;;;19.57;;
908;SDS011;441;51.192;6.788;2024-03-02T06:39:20;20.10;;;19.30;;
908;SDS011;441;51.192;6.788;2024-03-02T06:41:47;20.20;;;19.30;;
908;SDS011;441;51.192;6.788;2024-03-02T06:44:13;19.73;;;19.03;;
908;SDS011;441;51.192;6.788;2024-03-02T06:46:40;19.87;;;19.17;;
908;SDS011;441;51.192;6.788;2024-03-02T06:49:07;20.40;;;19.60;;
908;SDS011;441;51.192;6.788;2024-03-02T06:51:35;20.30;;;19.50;;
908;SDS011;441;51.192;6.788;2024-03-02T06:54:02;20.70;;;19.90;;
908;SDS011;441;51.192;6.788;2024-03-02T06:56:31;20.60;;;19.80;;
908;SDS011;441;51.192;6.788;2024-03-02T06:58:59;20.67;;;19.87;;
908;SDS011;441;51.192;6.788;2024-03-02T07:01:26;20.97;;;20.07;;
908;SDS011;441;51.192;6.788;2024-03-02T07:03:53;21.03;;;20.23;;
908;SDS011;441;51.192;6.788;2024-03-02T07:06:19;21.50;;;20.70;;
908;SDS011;441;51.192;6.788;2024-03-02T07:08:46;20.00;;;19.30;;
908;SDS011;441;51.192;6.788;2024-03-02T07:11:13;21.27;;;20.37;;
908;SDS011;441;51.192;6.788;2024-03-02T07:13:41;20.90;;;20.10;;
908;SDS011;441;51.192;6.788;2024-03-02T07:16:08;20.60;;;19.80;;
908;SDS011;441;51.192;6.788;2024-03-02T07:18:52;20.60;;;19.80;;
908;SDS011;441;51.192;6.788;2024-03-02T07:21:20;20.73;;;19.93;;
908;SDS011;441;51.192;6.788;2024-03-02T07:23:47;20.70;;;19.90;;
908;SDS011;441;51.192;6.788;2024-03-02T07:26:14;21.30;;;20.50;;
908;SDS011;441;51.192;6.788;2024-03-02T07:28:42;20.80;;;20.00;;
908;SDS011;441;51.192;6.788;2024-03-02T07:31:10;20.50;;;19.80;;
908;SDS011;441;51.192;6.788;2024-03-02T07:33:36;21.00;;;20.20;;
908;SDS011;441;51.192;6.788;2024-03-02T07:36:04;22.17;;;21.33;;
908;SDS011;441;51.192;6.788;2024-03-02T07:38:31;21.10;;;20.30;;
908;SDS011;441;51.192;6.788;2024-03-02T07:41:00;20.70;;;20.00;;
908;SDS011;441;51.192;6.788;2024-03-02T07:43:27;20.60;;;19.90;;
908;SDS011;441;51.192;6.788;2024-03-02T07:45:56;20.87;;;20.13;;
908;SDS011;441;51.192;6.788;2024-03-02T07:48:22;21.80;;;21.00;;
908;SDS011;441;51.192;6.788;2024-03-02T07:50:50;21.20;;;20.40;;
908;SDS011;441;51.192;6.788;2024-03-02T07:53:17;20.80;;;20.10;;
908;SDS011;441;51.192;6.788;2024-03-02T07:55:45;21.87;;;21.07;;
908;SDS011;441;51.192;6.788;2024-03-02T07:58:12;21.33;;;20.53;;
908;SDS011;441;51.192;6.788;2024-03-02T08:00:39;20.50;;;19.80;;
908;SDS011;441;51.192;6.788;2024-03-02T08:03:07;21.20;;;20.20;;
908;SDS011;441;51.192;6.788;2024-03-02T08:05:36;20.70;;;19.90;;
908;SDS011;441;51.192;6.788;2024-03-02T08:08:04;21.40;;;20.60;;
908;SDS011;441;51.192;6.788;2024-03-02T08:10:31;21.33;;;20.53;;
908;SDS011;441;51.192;6.788;2024-03-02T08:12:58;20.70;;;19.90;;
908;SDS011;441;51.192;6.788;2024-03-02T08:15:25;20.63;;;19.93;;
908;SDS011;441;51.192;6.788;2024-03-02T08:17:52;20.80;;;20.10;;
908;SDS011;441;51.192;6.788;2024-03-02T08:20:20;20.70;;;20.00;;
908;SDS011;441;51.192;6.788;2024-03-02T08:22:47;21.30;;;20.50;;
908;SDS011;441;51.192;6.788;2024-03-02T08:25:13;20.70;;;20.00;;
908;SDS011;441;51.192;6.788;2024-03-02T08:27:41;20.43;;;19.73;;
908;SDS011;441;51.192;6.788;2024-03-02T08:30:08;20.60;;;19.90;;
908;SDS011;441;51.192;6.788;2024-03-02T08:32:35;20.77;;;19.97;;
908;SDS011;441;51.192;6.788;2024-03-02T08:35:03;21.40;;;20.60;;
908;SDS011;441;51.192;6.788;2024-03-02T08:37:32;22.30;;;21.50;;
908;SDS011;441;51.192;6.788;2024-03-02T08:39:59;22.00;;;21.00;;
908;SDS011;441;51.192;6.788;2024-03-02T08:42:26;22.33;;;21.43;;
908;SDS011;441;51.192;6.788;2024-03-02T08:44:53;21.57;;;20.77;;
908;SDS011;441;51.192;6.788;2024-03-02T08:47:19;21.80;;;21.00;;
908;SDS011;441;51.192;6.788;2024-03-02T08:49:47;21.10;;;20.30;;
908;SDS011;441;51.192;6.788;2024-03-02T08:52:14;21.27;;;20.47;;
908;SDS011;441;51.192;6.788;2024-03-02T08:54:42;22.27;;;21.47;;
908;SDS011;441;51.192;6.788;2024-03-02T08:57:08;21.07;;;20.27;;
908;SDS011;441;51.192;6.788;2024-03-02T08:59:35;21.50;;;20.70;;
908;SDS011;441;51.192;6.788;2024-03-02T09:02:02;21.50;;;20.60;;
908;SDS011;441;51.192;6.788;2024-03-02T09:04:29;21.63;;;20.83;;
908;SDS011;441;51.192;6.788;2024-03-02T09:06:56;22.83;;;21.80;;
908;SDS011;441;51.192;6.788;2024-03-02T09:09:23;24.30;;;22.53;;
908;SDS011;441;51.192;6.788;2024-03-02T09:11:51;23.20;;;22.00;;
908;SDS011;441;51.192;6.788;2024-03-02T09:14:19;24.53;;;22.90;;
908;SDS011;441;51.192;6.788;2024-03-02T09:16:46;26.13;;;23.80;;
908;SDS011;441;51.192;6.788;2024-03-02T09:19:13;23.80;;;22.50;;
908;SDS011;441;51.192;6.788;2024-03-02T09:21:41;26.13;;;24.43;;
908;SDS011;441;51.192;6.788;2024-03-02T09:24:09;25.10;;;22.70;;
908;SDS011;441;51.192;6.788;2024-03-02T09:26:35;23.37;;;22.00;;
908;SDS011;441;51.192;6.788;2024-03-02T09:29:04;23.40;;;21.73;;
908;SDS011;441;51.192;6.788;2024-03-02T09:31:30;25.33;;;23.13;;
908;SDS011;441;51.192;6.788;2024-03-02T09:33:57;23.70;;;22.10;;
908;SDS011;441;51.192;6.788;2024-03-02T09:36:24;24.33;;;22.83;;
908;SDS011;441;51.192;6.788;2024-03-02T09:38:51;23.63;;;22.23;;
908;SDS011;441;51.192;6.788;2024-03-02T09:41:18;24.53;;;22.50;;
908;SDS011;441;51.192;6.788;2024-03-02T09:43:45;25.17;;;23.67;;
908;SDS011;441;51.192;6.788;2024-03-02T09:46:14;23.83;;;22.43;;
908;SDS011;441;51.192;6.788;2024-03-02T09:48:42;23.37;;;22.17;;
908;SDS011;441;51.192;6.788;2024-03-02T09:51:10;24.73;;;23.13;;
908;SDS011;441;51.192;6.788;2024-03-02T09:53:38;27.73;;;23.23;;
908;SDS011;441;51.192;6.788;2024-03-02T09:56:05;24.00;;;22.60;;
908;SDS011;441;51.192;6.788;2024-03-02T09:58:32;23.37;;;22.17;;
908;SDS011;441;51.192;6.788;2024-03-02T10:00:59;24.47;;;23.07;;
908;SDS011;441;51.192;6.788;2024-03-02T10:03:27;23.50;;;21.73;;
908;SDS011;441;51.192;6.788;2024-03-02T10:05:57;23.50;;;22.37;;
908;SDS011;441;51.192;6.788;2024-03-02T10:08:47;24.13;;;22.73;;
908;SDS011;441;51.192;6.788;2024-03-02T10:14:06;24.67;;;23.07;;
908;SDS011;441;51.192;6.788;2024-03-02T10:16:34;24.50;;;23.13;;
908;SDS011;441;51.192;6.788;2024-03-02T10:19:19;23.50;;;21.60;;
908;SDS011;441;51.192;6.788;2024-03-02T10:21:47;23.20;;;22.10;;
908;SDS011;441;51.192;6.788;2024-03-02T10:24:15;23.27;;;22.00;;
908;SDS011;441;51.192;6.788;2024-03-02T10:26:42;23.53;;;22.33;;
908;SDS011;441;51.192;6.788;2024-03-02T10:29:09;24.57;;;22.87;;
908;SDS011;441;51.192;6.788;2024-03-02T10:31:36;23.37;;;22.17;;
908;SDS011;441;51.192;6.788;2024-03-02T10:34:04;22.77;;;21.57;;
908;SDS011;441;51.192;6.788;2024-03-02T10:36:33;23.40;;;22.03;;
908;SDS011;441;51.192;6.788;2024-03-02T10:39:02;22.53;;;21.17;;
908;SDS011;441;51.192;6.788;2024-03-02T10:41:29;22.17;;;21.13;;
908;SDS011;441;51.192;6.788;2024-03-02T10:43:59;24.67;;;22.83;;
908;SDS011;441;51.192;6.788;2024-03-02T10:46:29;22.07;;;21.07;;
908;SDS011;441;51.192;6.788;2024-03-02T10:48:56;22.30;;;21.20;;
908;SDS011;441;51.192;6.788;2024-03-02T10:51:25;22.10;;;21.10;;
908;SDS011;441;51.192;6.788;2024-03-02T10:53:55;23.00;;;21.70;;
908;SDS011;441;51.192;6.788;2024-03-02T10:56:25;22.90;;;21.30;;
908;SDS011;441;51.192;6.788;2024-03-02T10:58:55;22.40;;;21.30;;
908;SDS011;441;51.192;6.788;2024-03-02T11:01:29;23.00;;;21.93;;
908;SDS011;441;51.192;6.788;2024-03-02T11:03:57;23.27;;;21.93;;
908;SDS011;441;51.192;6.788;2024-03-02T11:06:25;22.93;;;21.67;;
908;SDS011;441;51.192;6.788;2024-03-02T11:08:55;21.90;;;20.80;;
908;SDS011;441;51.192;6.788;2024-03-02T11:11:29;21.33;;;20.53;;
908;SDS011;441;51.192;6.788;2024-03-02T11:14:00;22.20;;;21.30;;
908;SDS011;441;51.192;6.788;2024-03-02T11:16:33;22.20;;;21.10;;
908;SDS011;441;51.192;6.788;2024-03-02T11:19:02;22.87;;;21.90;;
908;SDS011;441;51.192;6.788;2024-03-02T11:21:32;23.27;;;22.20;;
908;SDS011;441;51.192;6.788;2024-03-02T11:24:02;21.80;;;20.90;;
908;SDS011;441;51.192;6.788;2024-03-02T11:26:58;23.40;;;22.37;;
908;SDS011;441;51.192;6.788;2024-03-02T11:32:13;21.07;;;20.27;;
908;SDS011;441;51.192;6.788;2024-03-02T11:34:45;21.70;;;20.90;;
908;SDS011;441;51.192;6.788;2024-03-02T11:37:13;21.80;;;20.63;;
908;SDS011;441;51.192;6.788;2024-03-02T11:39:41;22.10;;;21.10;;
908;SDS011;441;51.192;6.788;2024-03-02T11:42:10;21.97;;;21.03;;
908;SDS011;441;51.192;6.788;2024-03-02T11:44:39;21.93;;;20.53;;
908;SDS011;441;51.192;6.788;2024-03-02T11:47:08;21.07;;;20.17;;
908;SDS011;441;51.192;6.788;2024-03-02T11:49:39;20.87;;;20.00;;
908;SDS011;441;51.192;6.788;2024-03-02T11:52:08;21.07;;;20.13;;
908;SDS011;441;51.192;6.788;2024-03-02T11:54:36;20.83;;;19.93;;
908;SDS011;441;51.192;6.788;2024-03-02T11:57:07;21.73;;;20.73;;
908;SDS011;441;51.192;6.788;2024-03-02T11:59:34;21.90;;;20.80;;
908;SDS011;441;51.192;6.788;2024-03-02T12:02:01;22.70;;;21.70;;
908;SDS011;441;51.192;6.788;2024-03-02T12:04:28;22.60;;;21.40;;
908;SDS011;441;51.192;6.788;2024-03-02T12:06:57;22.30;;;21.20;;
908;SDS011;441;51.192;6.788;2024-03-02T12:09:25;23.30;;;22.30;;
908;SDS011;441;51.192;6.788;2024-03-02T12:12:01;22.00;;;21.13;;
908;SDS011;441;51.192;6.788;2024-03-02T12:14:32;22.47;;;21.37;;
908;SDS011;441;51.192;6.788;2024-03-02T12:16:59;21.97;;;21.07;;
908;SDS011;441;51.192;6.788;2024-03-02T12:19:27;22.70;;;21.40;;
908;SDS011;441;51.192;6.788;2024-03-02T12:21:54;21.97;;;21.07;;
908;SDS011;441;51.192;6.788;2024-03-02T12:24:22;21.70;;;20.80;;
908;SDS011;441;51.192;6.788;2024-03-02T12:26:49;22.20;;;21.20;;
908;SDS011;441;51.192;6.788;2024-03-02T12:29:17;21.80;;;20.90;;
908;SDS011;441;51.192;6.788;2024-03-02T12:31:46;21.37;;;20.20;;
908;SDS011;441;51.192;6.788;2024-03-02T12:34:14;21.47;;;20.43;;
908;SDS011;441;51.192;6.788;2024-03-02T12:36:42;21.47;;;20.53;;
908;SDS011;441;51.192;6.788;2024-03-02T12:39:12;21.80;;;20.90;;
908;SDS011;441;51.192;6.788;2024-03-02T12:41:39;21.23;;;20.37;;
908;SDS011;441;51.192;6.788;2024-03-02T12:44:06;20.70;;;19.90;;
908;SDS011;441;51.192;6.788;2024-03-02T12:46:32;20.97;;;20.20;;
908;SDS011;441;51.192;6.788;2024-03-02T12:49:07;21.40;;;20.60;;
908;SDS011;441;51.192;6.788;2024-03-02T12:51:37;21.40;;;20.60;;
908;SDS011;441;51.192;6.788;2024-03-02T12:54:05;20.80;;;20.10;;
908;SDS011;441;51.192;6.788;2024-03-02T12:56:32;20.87;;;20.07;;
908;SDS011;441;51.192;6.788;2024-03-02T12:58:59;22.70;;;21.80;;
908;SDS011;441;51.192;6.788;2024-03-02T13:01:26;22.03;;;21.13;;
908;SDS011;441;51.192;6.788;2024-03-02T13:03:53;21.80;;;21.00;;
908;SDS011;441;51.192;6.788;2024-03-02T13:06:23;22.00;;;21.20;;
908;SDS011;441;51.192;6.788;2024-03-02T13:08:53;22.50;;;21.70;;
908;SDS011;441;51.192;6.788;2024-03-02T13:11:20;22.00;;;21.00;;
908;SDS011;441;51.192;6.788;2024-03-02T13:13:48;21.97;;;21.13;;
908;SDS011;441;51.192;6.788;2024-03-02T13:16:15;22.37;;;21.57;;
908;SDS011;441;51.192;6.788;2024-03-02T13:18:44;22.20;;;21.20;;
908;SDS011;441;51.192;6.788;2024-03-02T13:21:11;21.70;;;20.90;;
908;SDS011;441;51.192;6.788;2024-03-02T13:23:39;21.87;;;20.97;;
908;SDS011;441;51.192;6.788;2024-03-02T13:26:05;21.80;;;21.00;;
908;SDS011;441;51.192;6.788;2024-03-02T13:28:35;21.97;;;21.17;;
908;SDS011;441;51.192;6.788;2024-03-02T13:31:03;21.80;;;20.90;;
908;SDS011;441;51.192;6.788;2024-03-02T13:33:29;21.20;;;20.50;;
908;SDS011;441;51.192;6.788;2024-03-02T13:35:57;22.60;;;21.60;;
908;SDS011;441;51.192;6.788;2024-03-02T13:38:24;21.90;;;21.07;;
908;SDS011;441;51.192;6.788;2024-03-02T13:40:53;21.27;;;20.47;;
908;SDS011;441;51.192;6.788;2024-03-02T13:43:19;21.97;;;20.97;;
908;SDS011;441;51.192;6.788;2024-03-02T13:45:47;22.13;;;21.27;;
908;SDS011;441;51.192;6.788;2024-03-02T13:48:14;22.07;;;21.27;;
908;SDS011;441;51.192;6.788;2024-03-02T13:50:40;22.03;;;21.23;;
908;SDS011;441;51.192;6.788;2024-03-02T13:53:07;29.23;;;28.03;;
908;SDS011;441;51.192;6.788;2024-03-02T13:55:34;28.40;;;27.30;;
908;SDS011;441;51.192;6.788;2024-03-02T13:58:02;29.17;;;27.70;;
908;SDS011;441;51.192;6.788;2024-03-02T14:00:29;29.50;;;28.30;;
908;SDS011;441;51.192;6.788;2024-03-02T14:02:56;28.87;;;27.67;;
908;SDS011;441;51.192;6.788;2024-03-02T14:05:23;29.87;;;28.67;;
908;SDS011;441;51.192;6.788;2024-03-02T14:07:49;29.03;;;27.83;;
908;SDS011;441;51.192;6.788;2024-03-02T14:10:16;29.20;;;28.00;;
908;SDS011;441;51.192;6.788;2024-03-02T14:12:47;29.63;;;28.43;;
908;SDS011;441;51.192;6.788;2024-03-02T14:15:15;28.53;;;27.43;;
908;SDS011;441;51.192;6.788;2024-03-02T14:17:41;29.20;;;28.10;;
908;SDS011;441;51.192;6.788;2024-03-02T14:20:09;29.17;;;27.97;;
908;SDS011;441;51.192;6.788;2024-03-02T14:22:37;30.33;;;29.10;;
908;SDS011;441;51.192;6.788;2024-03-02T14:25:04;28.50;;;27.30;;
908;SDS011;441;51.192;6.788;2024-03-02T14:27:31;27.97;;;26.87;;
908;SDS011;441;51.192;6.788;2024-03-02T14:29:58;28.70;;;27.50;;
908;SDS011;441;51.192;6.788;2024-03-02T14:32:27;28.80;;;27.60;;
908;SDS011;441;51.192;6.788;2024-03-02T14:34:53;27.52;;;26.42;;
908;SDS011;441;51.192;6.788;2024-03-02T14:37:20;28.53;;;27.30;;
908;SDS011;441;51.192;6.788;2024-03-02T14:39:47;29.37;;;28.20;;
908;SDS011;441;51.192;6.788;2024-03-02T14:42:15;28.60;;;27.40;;
908;SDS011;441;51.192;6.788;2024-03-02T14:44:42;29.30;;;28.10;;
908;SDS011;441;51.192;6.788;2024-03-02T14:47:08;29.70;;;28.50;;
908;SDS011;441;51.192;6.788;2024-03-02T14:49:37;26.70;;;25.60;;
908;SDS011;441;51.192;6.788;2024-03-02T14:52:05;29.20;;;28.00;;
908;SDS011;441;51.192;6.788;2024-03-02T14:54:32;27.33;;;26.20;;
908;SDS011;441;51.192;6.788;2024-03-02T14:57:00;25.50;;;24.50;;
908;SDS011;441;51.192;6.788;2024-03-02T14:59:27;27.13;;;25.80;;
908;SDS011;441;51.192;6.788;2024-03-02T15:01:54;27.00;;;25.90;;
908;SDS011;441;51.192;6.788;2024-03-02T15:04:21;27.33;;;26.23;;
908;SDS011;441;51.192;6.788;2024-03-02T15:06:49;25.93;;;24.83;;
908;SDS011;441;51.192;6.788;2024-03-02T15:09:16;28.40;;;27.20;;
908;SDS011;441;51.192;6.788;2024-03-02T15:11:45;27.63;;;26.53;;
908;SDS011;441;51.192;6.788;2024-03-02T15:14:12;27.87;;;26.63;;
908;SDS011;441;51.192;6.788;2024-03-02T15:16:39;28.27;;;27.07;;
908;SDS011;441;51.192;6.788;2024-03-02T15:19:06;27.40;;;26.20;;
908;SDS011;441;51.192;6.788;2024-03-02T15:21:33;28.17;;;27.00;;
908;SDS011;441;51.192;6.788;2024-03-02T15:24:01;27.33;;;26.23;;
908;SDS011;441;51.192;6.788;2024-03-02T15:26:28;29.10;;;27.80;;